createdAt,value
2019-03-19T00:00:33.508Z,98796.16
2019-03-19T00:03:03.105Z,98798.99
2019-03-19T00:05:32.674Z,98799.19
2019-03-19T00:08:02.330Z,98801.55
2019-03-19T00:10:31.926Z,98806.53
2019-03-19T00:13:01.537Z,98799.61
2019-03-19T00:15:31.207Z,98810.98
2019-03-19T00:18:00.826Z,98801.36
2019-03-19T00:20:30.450Z,98802.59
2019-03-19T00:23:00.075Z,98804.69
2019-03-19T00:25:30.574Z,98799.48
2019-03-19T00:28:00.305Z,98802.92
2019-03-19T00:30:29.910Z,98801.61
2019-03-19T00:32:59.509Z,98813.83
2019-03-19T00:35:29.108Z,98805.35
2019-03-19T00:37:58.718Z,98811.13
2019-03-19T00:40:28.287Z,98812.52
2019-03-19T00:42:57.856Z,98812.39
2019-03-19T00:45:27.555Z,98807.13
2019-03-19T00:47:57.182Z,98804.80
2019-03-19T00:50:26.784Z,98806.20
2019-03-19T00:52:56.389Z,98806.20
2019-03-19T00:55:25.939Z,98793.09
2019-03-19T00:57:55.547Z,98805.92
2019-03-19T01:00:25.108Z,98803.44
2019-03-19T01:02:54.707Z,98799.22
2019-03-19T01:05:24.329Z,98791.63
2019-03-19T01:07:53.892Z,98799.23
2019-03-19T01:10:23.468Z,98798.97
2019-03-19T01:12:53.049Z,98799.75
2019-03-19T01:15:22.671Z,98796.87
2019-03-19T01:17:52.284Z,98796.31
2019-03-19T01:20:21.849Z,98792.27
2019-03-19T01:22:51.431Z,98799.82
2019-03-19T01:25:21.018Z,98793.48
2019-03-19T01:27:50.626Z,98795.58
2019-03-19T01:30:20.326Z,98798.63
2019-03-19T01:32:49.912Z,98798.47
2019-03-19T01:35:19.548Z,98800.64
2019-03-19T01:37:49.117Z,98794.58
2019-03-19T01:40:18.763Z,98798.41
2019-03-19T01:42:48.439Z,98800.69
2019-03-19T01:45:17.995Z,98806.50
2019-03-19T01:47:47.574Z,98806.16
2019-03-19T01:50:17.268Z,98810.13
2019-03-19T01:52:46.940Z,98812.22
2019-03-19T01:55:16.623Z,98807.88
2019-03-19T01:57:46.226Z,98815.18
2019-03-19T02:00:16.159Z,98820.08
2019-03-19T02:02:45.805Z,98820.14
2019-03-19T02:05:15.548Z,98829.05
2019-03-19T02:07:45.178Z,98824.26
2019-03-19T02:10:15.118Z,98830.10
2019-03-19T02:12:44.839Z,98829.69
2019-03-19T02:15:14.562Z,98834.78
2019-03-19T02:17:44.137Z,98838.31
2019-03-19T02:20:14.378Z,98833.03
2019-03-19T02:22:44.029Z,98839.36
2019-03-19T02:25:13.746Z,98841.83
2019-03-19T02:27:43.316Z,98837.97
2019-03-19T02:30:13.218Z,98835.50
2019-03-19T02:32:42.884Z,98830.27
2019-03-19T02:35:12.735Z,98833.27
2019-03-19T02:37:42.362Z,98837.97
2019-03-19T02:40:12.256Z,98837.14
2019-03-19T02:42:41.828Z,98841.53
2019-03-19T02:45:11.516Z,98841.70
2019-03-19T02:47:41.247Z,98844.47
2019-03-19T02:50:11.683Z,98845.46
2019-03-19T02:52:41.247Z,98846.80
2019-03-19T02:55:11.004Z,98846.86
2019-03-19T02:57:40.717Z,98844.11
2019-03-19T03:00:10.782Z,98853.90
2019-03-19T03:02:40.382Z,98851.48
2019-03-19T03:05:11.851Z,98855.52
2019-03-19T03:07:41.592Z,98855.98
2019-03-19T03:10:11.739Z,98862.89
2019-03-19T03:12:41.337Z,98860.84
2019-03-19T03:15:11.130Z,98869.69
2019-03-19T03:17:40.786Z,98872.11
2019-03-19T03:20:10.446Z,98870.12
2019-03-19T03:22:40.203Z,98872.27
2019-03-19T03:25:09.766Z,98868.22
2019-03-19T03:27:39.404Z,98870.45
2019-03-19T03:30:10.381Z,98871.13
2019-03-19T03:32:39.942Z,98872.13
2019-03-19T03:35:10.145Z,98876.09
2019-03-19T03:37:39.839Z,98870.64
2019-03-19T03:40:11.057Z,98876.23
2019-03-19T03:42:43.048Z,98862.77
2019-03-19T03:45:12.251Z,98865.07
2019-03-19T03:47:41.815Z,98863.56
2019-03-19T03:50:11.712Z,98871.63
2019-03-19T03:52:41.358Z,98871.95
2019-03-19T03:55:11.283Z,98870.33
2019-03-19T03:57:40.899Z,98876.05
2019-03-19T04:00:12.633Z,98868.48
2019-03-19T04:02:44.739Z,98878.22
2019-03-19T04:05:13.756Z,98881.70
2019-03-19T04:07:43.416Z,98885.52
2019-03-19T04:10:13.150Z,98892.38
2019-03-19T04:12:42.900Z,98897.14
2019-03-19T04:15:12.797Z,98897.02
2019-03-19T04:17:42.480Z,98905.84
2019-03-19T04:20:12.518Z,98898.55
2019-03-19T04:22:42.164Z,98903.48
2019-03-19T04:25:12.024Z,98904.98
2019-03-19T04:27:41.649Z,98912.22
2019-03-19T04:30:11.646Z,98917.09
2019-03-19T04:32:41.264Z,98912.39
2019-03-19T04:35:10.903Z,98920.53
2019-03-19T04:37:40.519Z,98911.94
2019-03-19T04:40:10.916Z,98910.27
2019-03-19T04:42:40.496Z,98910.13
2019-03-19T04:45:10.451Z,98913.03
2019-03-19T04:47:40.158Z,98918.55
2019-03-19T04:50:10.264Z,98919.25
2019-03-19T04:52:39.887Z,98920.84
2019-03-19T04:55:10.147Z,98921.98
2019-03-19T04:57:39.738Z,98925.67
2019-03-19T05:00:10.079Z,98930.22
2019-03-19T05:02:39.701Z,98932.39
2019-03-19T05:05:09.875Z,98931.16
2019-03-19T05:07:39.760Z,98939.15
2019-03-19T05:10:11.315Z,98934.44
2019-03-19T05:12:40.886Z,98940.13
2019-03-19T05:15:10.774Z,98942.09
2019-03-19T05:17:40.423Z,98949.49
2019-03-19T05:20:10.493Z,98948.81
2019-03-19T05:22:40.075Z,98945.36
2019-03-19T05:25:09.993Z,98950.20
2019-03-19T05:27:39.620Z,98960.30
2019-03-19T05:30:10.399Z,98958.27
2019-03-19T05:32:39.978Z,98966.93
2019-03-19T05:35:10.125Z,98968.54
2019-03-19T05:37:39.747Z,98958.49
2019-03-19T05:40:10.169Z,98962.27
2019-03-19T05:42:39.836Z,98965.88
2019-03-19T05:45:10.852Z,98974.38
2019-03-19T05:47:40.972Z,98966.64
2019-03-19T05:50:11.546Z,98970.70
2019-03-19T05:52:41.141Z,98965.48
2019-03-19T05:55:11.015Z,98977.79
2019-03-19T05:57:48.896Z,98971.92
2019-03-19T06:00:12.445Z,98988.27
2019-03-19T06:02:42.014Z,98981.19
2019-03-19T06:05:12.169Z,98980.18
2019-03-19T06:07:41.891Z,98975.73
2019-03-19T06:10:12.356Z,98984.05
2019-03-19T06:12:42.109Z,98982.24
2019-03-19T06:15:12.080Z,98983.16
2019-03-19T06:17:41.730Z,98975.81
2019-03-19T06:20:12.320Z,98988.58
2019-03-19T06:22:41.903Z,98986.22
2019-03-19T06:25:11.764Z,98993.09
2019-03-19T06:27:41.381Z,98989.16
2019-03-19T06:30:13.752Z,98992.66
2019-03-19T06:32:43.348Z,98984.41
2019-03-19T06:35:13.462Z,98988.77
2019-03-19T06:37:43.037Z,98981.99
2019-03-19T06:40:14.065Z,98981.31
2019-03-19T06:42:43.733Z,98985.47
2019-03-19T06:45:14.688Z,98979.33
2019-03-19T06:47:44.646Z,98981.21
2019-03-19T06:50:14.819Z,98988.36
2019-03-19T06:52:44.418Z,98985.64
2019-03-19T06:55:14.014Z,98983.33
2019-03-19T06:57:43.639Z,98984.77
2019-03-19T07:00:16.047Z,98990.08
2019-03-19T07:02:45.618Z,98989.66
2019-03-19T07:05:15.443Z,98985.28
2019-03-19T07:07:45.150Z,98980.40
2019-03-19T07:10:14.809Z,98994.86
2019-03-19T07:12:44.378Z,98989.23
2019-03-19T07:15:14.932Z,98985.89
2019-03-19T07:17:44.622Z,98987.14
2019-03-19T07:20:15.001Z,98985.84
2019-03-19T07:22:44.685Z,98992.86
2019-03-19T07:25:14.421Z,98991.73
2019-03-19T07:27:44.006Z,98998.93
2019-03-19T07:30:15.683Z,98996.54
2019-03-19T07:32:45.256Z,98985.05
2019-03-19T07:35:16.216Z,98989.97
2019-03-19T07:37:45.778Z,98986.00
2019-03-19T07:40:15.648Z,98993.30
2019-03-19T07:42:45.378Z,98990.94
2019-03-19T07:45:15.804Z,98990.14
2019-03-19T07:47:48.103Z,98993.51
2019-03-19T07:50:17.745Z,98991.59
2019-03-19T07:52:47.504Z,98990.11
2019-03-19T07:55:17.182Z,98984.25
2019-03-19T07:57:46.962Z,98982.27
2019-03-19T08:00:16.955Z,98977.30
2019-03-19T08:02:46.976Z,98983.95
2019-03-19T08:05:16.893Z,98979.48
2019-03-19T08:07:46.586Z,98976.19
2019-03-19T08:10:16.318Z,98968.67
2019-03-19T08:12:46.206Z,98980.67
2019-03-19T08:15:15.851Z,98968.30
2019-03-19T08:17:45.556Z,98973.20
2019-03-19T08:20:15.206Z,98968.13
2019-03-19T08:22:44.900Z,98978.91
2019-03-19T08:25:14.621Z,98967.79
2019-03-19T08:27:44.309Z,98961.17
2019-03-19T08:30:16.157Z,98965.05
2019-03-19T08:32:45.839Z,98955.48
2019-03-19T08:35:15.613Z,98963.81
2019-03-19T08:37:45.419Z,98958.80
2019-03-19T08:40:15.269Z,98959.50
2019-03-19T08:42:44.959Z,98965.91
2019-03-19T08:45:14.744Z,98962.70
2019-03-19T08:47:44.610Z,98957.73
2019-03-19T08:50:16.114Z,98951.08
2019-03-19T08:52:45.693Z,98952.09
2019-03-19T08:55:15.328Z,98944.79
2019-03-19T08:57:45.046Z,98945.03
2019-03-19T09:00:17.013Z,98959.01
2019-03-19T09:02:46.719Z,98957.36
2019-03-19T09:05:16.668Z,98948.94
2019-03-19T09:07:46.253Z,98950.17
2019-03-19T09:10:16.116Z,98952.26
2019-03-19T09:12:48.232Z,98952.69
2019-03-19T09:15:19.230Z,98951.91
2019-03-19T09:17:49.015Z,98954.29
2019-03-19T09:20:18.652Z,98954.59
2019-03-19T09:22:48.291Z,98952.05
2019-03-19T09:25:17.896Z,98954.48
2019-03-19T09:27:47.600Z,98954.59
2019-03-19T09:30:17.665Z,98957.02
2019-03-19T09:32:47.274Z,98952.33
2019-03-19T09:35:16.963Z,98949.41
2019-03-19T09:37:57.878Z,98937.08
2019-03-19T09:40:17.935Z,98939.92
2019-03-19T09:42:47.600Z,98944.53
2019-03-19T09:45:17.828Z,98948.77
2019-03-19T09:47:47.559Z,98950.14
2019-03-19T09:50:17.533Z,98944.41
2019-03-19T09:52:47.446Z,98947.81
2019-03-19T09:55:17.277Z,98944.33
2019-03-19T09:57:47.055Z,98937.36
2019-03-19T10:00:18.071Z,98935.62
2019-03-19T10:02:50.094Z,98936.95
2019-03-19T10:05:19.902Z,98930.95
2019-03-19T10:07:49.637Z,98926.64
2019-03-19T10:10:19.299Z,98926.36
2019-03-19T10:12:48.960Z,98930.84
2019-03-19T10:15:19.058Z,98930.33
2019-03-19T10:17:48.746Z,98923.63
2019-03-19T10:20:18.572Z,98929.75
2019-03-19T10:22:48.255Z,98927.06
2019-03-19T10:25:17.850Z,98935.35
2019-03-19T10:27:58.946Z,98928.66
2019-03-19T10:30:28.731Z,98928.56
2019-03-19T10:32:58.313Z,98919.53
2019-03-19T10:35:33.948Z,98916.05
2019-03-19T10:38:09.258Z,98914.64
2019-03-19T10:40:40.650Z,98905.13
2019-03-19T10:43:10.233Z,98915.12
2019-03-19T10:45:39.823Z,98907.76
2019-03-19T10:48:09.446Z,98903.98
2019-03-19T10:50:39.106Z,98902.70
2019-03-19T10:53:08.799Z,98904.59
2019-03-19T10:55:38.390Z,98899.55
2019-03-19T10:58:11.284Z,98899.81
2019-03-19T11:00:39.584Z,98895.34
2019-03-19T11:03:09.283Z,98899.77
2019-03-19T11:05:38.989Z,98893.45
2019-03-19T11:08:08.591Z,98884.95
2019-03-19T11:10:38.233Z,98884.85
2019-03-19T11:13:07.852Z,98876.91
2019-03-19T11:15:37.429Z,98879.22
2019-03-19T11:18:07.158Z,98883.56
2019-03-19T11:20:36.749Z,98874.82
2019-03-19T11:23:06.418Z,98877.55
2019-03-19T11:25:36.009Z,98867.45
2019-03-19T11:28:05.651Z,98871.03
2019-03-19T11:30:35.403Z,98866.08
2019-03-19T11:33:05.082Z,98864.52
2019-03-19T11:35:34.674Z,98856.50
2019-03-19T11:38:04.398Z,98856.63
2019-03-19T11:40:33.990Z,98852.47
2019-03-19T11:43:03.705Z,98853.88
2019-03-19T11:45:33.308Z,98853.88
2019-03-19T11:48:02.872Z,98849.77
2019-03-19T11:50:33.492Z,98851.97
2019-03-19T11:53:03.248Z,98849.76
2019-03-19T11:55:32.851Z,98857.74
2019-03-19T11:58:02.456Z,98852.23
2019-03-19T12:00:35.200Z,98847.30
2019-03-19T12:03:12.726Z,98854.14
2019-03-19T12:05:37.115Z,98852.20
2019-03-19T12:08:06.800Z,98847.64
2019-03-19T12:10:36.401Z,98847.69
2019-03-19T12:13:06.486Z,98843.90
2019-03-19T12:15:36.283Z,98843.16
2019-03-19T12:18:06.346Z,98844.27
2019-03-19T12:20:35.963Z,98840.44
2019-03-19T12:23:05.789Z,98836.31
2019-03-19T12:25:35.366Z,98839.31
2019-03-19T12:28:05.141Z,98837.39
2019-03-19T12:30:34.865Z,98830.99
2019-03-19T12:33:04.473Z,98825.57
2019-03-19T12:35:34.106Z,98822.03
2019-03-19T12:38:03.729Z,98825.05
2019-03-19T12:40:37.355Z,98825.05
2019-03-19T12:43:04.738Z,98831.38
2019-03-19T12:45:34.316Z,98826.14
2019-03-19T12:48:04.190Z,98838.77
2019-03-19T12:50:33.784Z,98840.97
2019-03-19T12:53:08.695Z,98845.54
2019-03-19T12:55:38.437Z,98837.60
2019-03-19T12:58:08.145Z,98836.01
2019-03-19T13:00:37.737Z,98835.71
2019-03-19T13:03:07.516Z,98835.61
2019-03-19T13:05:37.182Z,98839.07
2019-03-19T13:08:06.943Z,98834.53
2019-03-19T13:10:36.532Z,98830.45
2019-03-19T13:13:06.231Z,98831.55
2019-03-19T13:15:35.880Z,98830.78
2019-03-19T13:18:05.604Z,98831.81
2019-03-19T13:20:35.286Z,98825.33
2019-03-19T13:23:04.967Z,98823.41
2019-03-19T13:25:34.623Z,98818.45
2019-03-19T13:28:04.412Z,98815.17
2019-03-19T13:30:44.420Z,98814.35
2019-03-19T13:33:05.538Z,98818.46
2019-03-19T13:35:35.137Z,98813.73
2019-03-19T13:38:04.933Z,98820.39
2019-03-19T13:40:34.640Z,98817.92
2019-03-19T13:43:04.322Z,98818.20
2019-03-19T13:45:33.961Z,98818.48
2019-03-19T13:48:03.587Z,98812.66
2019-03-19T13:50:33.199Z,98826.13
2019-03-19T13:53:02.913Z,98821.75
2019-03-19T13:55:32.536Z,98831.34
2019-03-19T13:58:02.169Z,98827.70
2019-03-19T14:00:31.804Z,98827.70
2019-03-19T14:03:01.391Z,98821.50
2019-03-19T14:05:30.989Z,98816.73
2019-03-19T14:08:00.572Z,98830.69
2019-03-19T14:10:30.144Z,98823.69
2019-03-19T14:12:59.765Z,98822.45
2019-03-19T14:15:29.377Z,98781.13
2019-03-19T14:17:58.994Z,98818.17
2019-03-19T14:20:28.578Z,98818.17
2019-03-19T14:22:58.183Z,98816.48
2019-03-19T14:25:27.833Z,98820.92
2019-03-19T14:27:57.434Z,98813.48
2019-03-19T14:30:27.158Z,98813.48
2019-03-19T14:32:56.807Z,98819.20
2019-03-19T14:35:36.600Z,98819.02
2019-03-19T14:37:57.738Z,98817.91
2019-03-19T14:40:27.601Z,98832.67
2019-03-19T14:43:01.060Z,98832.67
2019-03-19T14:45:28.722Z,98834.81
2019-03-19T14:47:58.316Z,98834.64
2019-03-19T14:50:27.887Z,98835.66
2019-03-19T14:52:57.585Z,98837.48
2019-03-19T14:55:27.167Z,98837.55
2019-03-19T14:57:56.834Z,98839.31
2019-03-19T15:00:26.493Z,98839.62
2019-03-19T15:02:56.098Z,98848.02
2019-03-19T15:05:25.692Z,98844.83
2019-03-19T15:07:55.305Z,98848.69
2019-03-19T15:10:24.891Z,98853.67
2019-03-19T15:12:54.533Z,98853.67
2019-03-19T15:15:24.307Z,98849.56
2019-03-19T15:17:55.991Z,98853.07
2019-03-19T15:20:25.735Z,98860.00
2019-03-19T15:22:55.313Z,98864.58
2019-03-19T15:25:25.027Z,98847.69
2019-03-19T15:27:54.666Z,98867.97
2019-03-19T15:30:24.369Z,98867.80
2019-03-19T15:32:53.971Z,98869.55
2019-03-19T15:35:23.553Z,98873.48
2019-03-19T15:37:53.143Z,98869.52
2019-03-19T15:40:22.880Z,98874.45
2019-03-19T15:42:52.455Z,98876.96
2019-03-19T15:45:22.181Z,98881.20
2019-03-19T15:47:51.889Z,98879.53
2019-03-19T15:50:21.467Z,98889.32
2019-03-19T15:52:51.102Z,98889.57
2019-03-19T15:55:20.677Z,98893.57
2019-03-19T15:57:50.257Z,98893.14
2019-03-19T16:00:20.072Z,98897.06
2019-03-19T16:02:49.784Z,98906.39
2019-03-19T16:05:19.406Z,98908.48
2019-03-19T16:07:49.036Z,98907.75
2019-03-19T16:10:18.703Z,98919.59
2019-03-19T16:12:48.629Z,98921.13
2019-03-19T16:15:19.162Z,98927.09
2019-03-19T16:17:48.864Z,98932.88
2019-03-19T16:20:18.543Z,98941.92
2019-03-19T16:22:48.302Z,98951.70
2019-03-19T16:25:17.984Z,98958.41
2019-03-19T16:27:47.697Z,98960.39
2019-03-19T16:30:17.527Z,98966.48
2019-03-19T16:32:47.139Z,98975.88
2019-03-19T16:35:16.863Z,98981.66
2019-03-19T16:37:46.486Z,98984.36
2019-03-19T16:40:17.875Z,98997.41
2019-03-19T16:42:47.464Z,98992.59
2019-03-19T16:45:18.355Z,98998.66
2019-03-19T16:50:16.920Z,99012.83
2019-03-19T16:52:46.582Z,99017.89
2019-03-19T16:55:16.480Z,99020.80
2019-03-19T16:57:46.142Z,99034.64
2019-03-19T17:00:17.407Z,99044.53
2019-03-19T17:02:47.181Z,99042.94
2019-03-19T17:05:17.525Z,99046.87
2019-03-19T17:07:47.220Z,99053.14
2019-03-19T17:10:17.488Z,99060.19
2019-03-19T17:12:47.302Z,99055.91
2019-03-19T17:15:17.717Z,99060.96
2019-03-19T17:17:47.326Z,99061.95
2019-03-19T17:20:16.941Z,99066.59
2019-03-19T17:22:46.624Z,99076.13
2019-03-19T17:25:17.047Z,99081.59
2019-03-19T17:27:46.721Z,99082.95
2019-03-19T17:30:21.460Z,99086.87
2019-03-19T17:32:51.073Z,99087.44
2019-03-19T17:35:20.759Z,99095.25
2019-03-19T17:37:50.470Z,99103.53
2019-03-19T17:40:20.089Z,99110.73
2019-03-19T17:42:49.679Z,99118.38
2019-03-19T17:45:19.430Z,99115.38
2019-03-19T17:47:49.021Z,99122.92
2019-03-19T17:50:19.584Z,99129.85
2019-03-19T17:52:50.193Z,99128.83
2019-03-19T17:55:20.074Z,99142.13
2019-03-19T17:57:49.876Z,99145.91
2019-03-19T18:00:24.914Z,99160.83
2019-03-19T18:02:54.719Z,99169.31
2019-03-19T18:05:24.353Z,99172.19
2019-03-19T18:07:53.966Z,99183.75
2019-03-19T18:10:23.757Z,99186.95
2019-03-19T18:12:53.344Z,99181.27
2019-03-19T18:15:23.026Z,99186.95
2019-03-19T18:17:52.619Z,99202.83
2019-03-19T18:20:22.271Z,99207.18
2019-03-19T18:22:51.967Z,99210.22
2019-03-19T18:25:23.687Z,99204.08
2019-03-19T18:27:53.388Z,99213.58
2019-03-19T18:30:23.008Z,99219.58
2019-03-19T18:32:55.801Z,99219.75
2019-03-19T18:35:25.431Z,99221.72
2019-03-19T18:37:55.050Z,99224.61
2019-03-19T18:40:25.217Z,99223.62
2019-03-19T18:42:54.896Z,99226.16
2019-03-19T18:45:24.471Z,99228.30
2019-03-19T18:47:54.164Z,99243.73
2019-03-19T18:50:23.973Z,99266.08
2019-03-19T18:52:53.594Z,99279.61
2019-03-19T18:55:23.255Z,99292.37
2019-03-19T18:57:52.865Z,99295.73
2019-03-19T19:00:22.609Z,99307.59
2019-03-19T19:02:52.256Z,99319.17
2019-03-19T19:05:21.942Z,99327.09
2019-03-19T19:07:51.536Z,99331.78
2019-03-19T19:10:21.718Z,99352.63
2019-03-19T19:12:51.459Z,99375.71
2019-03-19T19:15:21.506Z,99374.42
2019-03-19T19:17:51.113Z,99397.11
2019-03-19T19:20:20.886Z,99399.83
2019-03-19T19:22:50.458Z,99407.84
2019-03-19T19:25:20.060Z,99417.27
2019-03-19T19:27:49.715Z,99422.79
2019-03-19T19:30:20.281Z,99426.16
2019-03-19T19:33:00.527Z,99439.48
2019-03-19T19:35:21.345Z,99443.41
2019-03-19T19:37:50.922Z,99443.72
2019-03-19T19:40:20.518Z,99451.70
2019-03-19T19:42:50.169Z,99452.00
2019-03-19T19:45:19.959Z,99454.80
2019-03-19T19:47:49.594Z,99463.91
2019-03-19T19:50:19.325Z,99465.77
2019-03-19T19:52:49.065Z,99467.50
2019-03-19T19:55:18.728Z,99476.30
2019-03-19T19:57:48.334Z,99474.70
2019-03-19T20:00:18.178Z,99484.98
2019-03-19T20:02:48.007Z,99491.96
2019-03-19T20:05:17.758Z,99506.00
2019-03-19T20:07:47.406Z,99503.49
2019-03-19T20:10:18.036Z,99502.89
2019-03-19T20:12:47.639Z,99502.70
2019-03-19T20:15:17.235Z,99504.53
2019-03-19T20:17:46.833Z,99501.52
2019-03-19T20:20:17.795Z,99503.27
2019-03-19T20:22:47.452Z,99503.66
2019-03-19T20:25:17.156Z,99494.10
2019-03-19T20:27:46.777Z,99487.80
2019-03-19T20:30:19.948Z,99489.61
2019-03-19T20:32:49.602Z,99498.42
2019-03-19T20:35:19.210Z,99484.31
2019-03-19T20:37:48.826Z,99479.16
2019-03-19T20:40:18.804Z,99488.51
2019-03-19T20:42:48.545Z,99478.91
2019-03-19T20:45:18.146Z,99469.46
2019-03-19T20:47:47.912Z,99465.13
2019-03-19T20:50:20.296Z,99460.20
2019-03-19T20:52:49.885Z,99442.74
2019-03-19T20:55:19.526Z,99431.63
2019-03-19T20:57:49.100Z,99417.73
2019-03-19T21:00:19.101Z,99413.42
2019-03-19T21:02:48.846Z,99412.91
2019-03-19T21:05:18.640Z,99412.08
2019-03-19T21:07:48.397Z,99417.02
2019-03-19T21:10:18.987Z,99420.93
2019-03-19T21:12:48.692Z,99419.41
2019-03-19T21:15:20.011Z,99417.39
2019-03-19T21:17:49.949Z,99417.19
2019-03-19T21:20:19.892Z,99413.10
2019-03-19T21:22:49.482Z,99411.69
2019-03-19T21:25:19.170Z,99413.93
2019-03-19T21:27:48.783Z,99416.45
2019-03-19T21:30:18.481Z,99421.27
2019-03-19T21:32:48.313Z,99422.22
2019-03-19T21:35:20.881Z,99418.53
2019-03-19T21:37:50.565Z,99425.62
2019-03-19T21:40:20.231Z,99424.12
2019-03-19T21:42:49.874Z,99429.19
2019-03-19T21:45:19.585Z,99428.20
2019-03-19T21:47:49.305Z,99426.70
2019-03-19T21:50:18.926Z,99425.72
2019-03-19T21:52:48.550Z,99420.89
2019-03-19T21:55:18.147Z,99412.41
2019-03-19T21:57:47.735Z,99406.37
2019-03-19T22:00:17.972Z,99401.88
2019-03-19T22:02:47.544Z,99395.96
2019-03-19T22:05:17.248Z,99394.86
2019-03-19T22:07:46.916Z,99394.41
2019-03-19T22:10:17.254Z,99390.23
2019-03-19T22:12:49.144Z,99386.13
2019-03-19T22:15:18.830Z,99381.55
2019-03-19T22:17:48.409Z,99380.65
2019-03-19T22:20:18.067Z,99380.96
2019-03-19T22:22:47.793Z,99390.66
2019-03-19T22:25:17.385Z,99393.11
2019-03-19T22:27:47.120Z,99397.99
2019-03-19T22:30:17.370Z,99393.78
2019-03-19T22:32:47.034Z,99398.97
2019-03-19T22:35:16.675Z,99404.60
2019-03-19T22:37:46.473Z,99399.47
2019-03-19T22:40:16.370Z,99401.77
2019-03-19T22:42:46.114Z,99406.51
2019-03-19T22:45:15.850Z,99410.95
2019-03-19T22:47:45.445Z,99405.53
2019-03-19T22:50:15.467Z,99407.89
2019-03-19T22:52:45.229Z,99405.37
2019-03-19T22:55:14.836Z,99410.00
2019-03-19T22:57:44.466Z,99412.19
2019-03-19T23:00:18.814Z,99417.23
2019-03-19T23:02:48.442Z,99409.64
2019-03-19T23:05:18.020Z,99417.59
2019-03-19T23:07:47.667Z,99418.84
2019-03-19T23:10:17.252Z,99410.78
2019-03-19T23:12:47.819Z,99414.14
2019-03-19T23:15:17.530Z,99415.55
2019-03-19T23:17:47.142Z,99417.02
2019-03-19T23:20:16.817Z,99421.83
2019-03-19T23:22:46.503Z,99419.13
2019-03-19T23:25:16.303Z,99423.59
2019-03-19T23:27:45.896Z,99429.70
2019-03-19T23:30:15.595Z,99431.75
2019-03-19T23:32:45.223Z,99436.69
2019-03-19T23:35:14.797Z,99439.70
2019-03-19T23:37:44.391Z,99441.20
2019-03-19T23:40:14.203Z,99448.80
2019-03-19T23:42:43.769Z,99454.97
2019-03-19T23:45:13.465Z,99455.00
2019-03-19T23:47:43.039Z,99464.30
2019-03-19T23:50:12.938Z,99465.35
2019-03-19T23:52:42.567Z,99466.49
2019-03-19T23:55:12.416Z,99472.54
2019-03-19T23:57:42.072Z,99476.41
